Time;durP1;ratioP1;P1;durP2;ratioP2;P2;SDS_P1;SDS_P2;PMS_P1;PMS_P2;Temp;Humidity;BMP_temperature;BMP_pressure;BME280_temperature;BME280_humidity;BME280_pressure;Samples;Min_cycle;Max_cycle;Signal;HPM_P1;HPM_P2
2022/06/19 00:02:16;;;;;;;2.92;2.10;;;;;;;;;;5055567;28;20021;-75
2022/06/19 00:04:41;;;;;;;2.50;1.95;;;;;;;;;;5055479;28;20103;-75
2022/06/19 00:07:07;;;;;;;1.73;1.63;;;;;;;;;;5055332;28;20476;-75
2022/06/19 00:09:32;;;;;;;2.30;2.10;;;;;;;;;;5055347;28;20105;-75
2022/06/19 00:11:57;;;;;;;1.97;1.60;;;;;;;;;;5055134;28;20036;-74
2022/06/19 00:14:24;;;;;;;2.17;1.83;;;;;;;;;;5055112;28;20290;-75
2022/06/19 00:16:50;;;;;;;2.45;2.17;;;;;;;;;;5055051;28;20450;-75
2022/06/19 00:19:16;;;;;;;2.15;1.92;;;;;;;;;;5054925;28;20029;-75
2022/06/19 00:21:41;;;;;;;3.22;1.92;;;;;;;;;;5037175;28;20056;-75
2022/06/19 00:24:06;;;;;;;2.73;2.10;;;;;;;;;;5054924;28;20067;-75
2022/06/19 00:26:32;;;;;;;3.60;3.28;;;;;;;;;;5054870;28;20267;-76
2022/06/19 00:28:57;;;;;;;2.55;2.35;;;;;;;;;;5054846;28;20163;-74
2022/06/19 00:31:23;;;;;;;3.28;2.97;;;;;;;;;;5036911;28;20123;-75
2022/06/19 00:33:49;;;;;;;1.85;1.75;;;;;;;;;;5054623;28;20025;-74
2022/06/19 00:36:14;;;;;;;2.27;2.07;;;;;;;;;;5036883;28;20027;-76
2022/06/19 00:38:39;;;;;;;2.07;1.90;;;;;;;;;;5054920;28;20871;-75
2022/06/19 00:41:04;;;;;;;2.10;1.90;;;;;;;;;;5054606;28;20283;-75
2022/06/19 00:43:30;;;;;;;2.55;2.28;;;;;;;;;;5054276;28;20429;-75
2022/06/19 00:45:59;;;;;;;2.70;2.50;;;;;;;;;;5054451;28;20516;-75
2022/06/19 00:48:37;;;;;;;2.80;2.40;;;;;;;;;;5036533;28;20013;-75
2022/06/19 00:51:05;;;;;;;2.90;2.13;;;;;;;;;;5036603;28;20087;-75
2022/06/19 00:53:46;;;;;;;2.50;2.30;;;;;;;;;;5053830;28;20088;-75
2022/06/19 00:56:14;;;;;;;2.55;2.05;;;;;;;;;;5054470;28;20017;-76
2022/06/19 00:58:40;;;;;;;5.50;2.03;;;;;;;;;;5054183;28;20056;-74
2022/06/19 01:01:07;;;;;;;3.78;2.35;;;;;;;;;;5054109;28;20048;-76
2022/06/19 01:03:37;;;;;;;3.72;2.35;;;;;;;;;;5054173;28;20025;-75
2022/06/19 01:06:03;;;;;;;2.45;2.25;;;;;;;;;;5054077;28;20031;-75
2022/06/19 01:08:29;;;;;;;3.90;2.30;;;;;;;;;;5053988;28;20021;-76
2022/06/19 01:10:54;;;;;;;2.78;2.10;;;;;;;;;;5054184;28;20028;-74
2022/06/19 01:13:22;;;;;;;4.07;1.90;;;;;;;;;;5054084;28;20017;-75
2022/06/19 01:15:48;;;;;;;2.65;2.42;;;;;;;;;;5054037;28;20264;-73
2022/06/19 01:18:13;;;;;;;3.35;2.10;;;;;;;;;;5054024;28;20362;-74
2022/06/19 01:20:39;;;;;;;2.17;1.98;;;;;;;;;;5053947;28;20021;-74
2022/06/19 01:23:15;;;;;;;2.05;1.70;;;;;;;;;;5053682;28;20025;-74
2022/06/19 01:25:41;;;;;;;2.20;2.00;;;;;;;;;;5053749;28;20044;-75
2022/06/19 01:30:53;;;;;;;2.45;2.25;;;;;;;;;;5054048;28;20119;-75
2022/06/19 01:33:20;;;;;;;2.60;2.10;;;;;;;;;;5053796;28;20020;-75
2022/06/19 01:35:48;;;;;;;2.10;1.90;;;;;;;;;;5036254;28;20029;-75
2022/06/19 01:38:14;;;;;;;3.60;1.85;;;;;;;;;;5054073;28;20462;-74
2022/06/19 01:40:41;;;;;;;2.28;2.08;;;;;;;;;;5053923;28;20032;-75
2022/06/19 01:43:06;;;;;;;2.22;2.03;;;;;;;;;;5053810;28;20021;-75
2022/06/19 01:45:32;;;;;;;2.35;2.00;;;;;;;;;;5053835;28;20091;-75
2022/06/19 01:47:57;;;;;;;2.78;1.80;;;;;;;;;;5053686;28;20078;-75
2022/06/19 01:50:24;;;;;;;3.17;2.40;;;;;;;;;;5053326;28;20071;-76
2022/06/19 01:52:51;;;;;;;3.80;2.20;;;;;;;;;;5053715;28;20017;-75
2022/06/19 01:55:18;;;;;;;2.42;2.05;;;;;;;;;;5054068;28;20020;-75
2022/06/19 01:57:47;;;;;;;2.67;1.98;;;;;;;;;;5053504;28;20056;-75
2022/06/19 02:00:13;;;;;;;2.60;2.05;;;;;;;;;;5053461;28;20048;-75
2022/06/19 02:02:40;;;;;;;2.58;1.98;;;;;;;;;;5053169;28;20017;-75
2022/06/19 02:05:06;;;;;;;2.33;2.00;;;;;;;;;;5036174;28;20548;-75
2022/06/19 02:07:31;;;;;;;3.92;2.25;;;;;;;;;;5057944;28;20033;-76
2022/06/19 02:09:58;;;;;;;2.50;2.17;;;;;;;;;;5057513;28;20020;-75
2022/06/19 02:12:23;;;;;;;2.30;2.10;;;;;;;;;;5057737;28;20087;-75
2022/06/19 02:14:49;;;;;;;2.30;2.20;;;;;;;;;;5057539;28;20029;-74
2022/06/19 02:17:17;;;;;;;3.33;2.17;;;;;;;;;;5057554;28;20021;-75
2022/06/19 02:19:43;;;;;;;2.50;2.17;;;;;;;;;;5057745;28;20109;-76
2022/06/19 02:22:10;;;;;;;2.42;2.22;;;;;;;;;;5057459;28;20044;-76
2022/06/19 02:24:36;;;;;;;2.35;2.15;;;;;;;;;;5057232;28;20108;-74
2022/06/19 02:27:02;;;;;;;3.10;2.42;;;;;;;;;;5057160;28;20454;-75
2022/06/19 02:29:27;;;;;;;3.58;2.40;;;;;;;;;;5057121;28;20112;-74
2022/06/19 02:31:54;;;;;;;3.17;2.70;;;;;;;;;;5057047;28;20108;-75
2022/06/19 02:34:21;;;;;;;3.90;1.98;;;;;;;;;;5057180;28;20052;-74
2022/06/19 02:37:08;;;;;;;2.72;2.15;;;;;;;;;;5056871;28;20040;-75
2022/06/19 02:39:36;;;;;;;2.60;2.40;;;;;;;;;;5057149;28;20477;-75
2022/06/19 02:42:13;;;;;;;4.65;2.28;;;;;;;;;;5057242;28;20025;-75
2022/06/19 02:44:40;;;;;;;3.08;2.03;;;;;;;;;;5056448;28;20516;-75
2022/06/19 02:47:05;;;;;;;2.65;2.45;;;;;;;;;;5057084;28;20040;-76
2022/06/19 02:49:31;;;;;;;2.60;2.40;;;;;;;;;;5038825;28;20029;-76
2022/06/19 02:51:57;;;;;;;2.67;2.30;;;;;;;;;;5056644;28;20454;-75
2022/06/19 02:54:22;;;;;;;3.42;2.50;;;;;;;;;;5056505;28;20021;-76
2022/06/19 02:56:47;;;;;;;6.10;2.35;;;;;;;;;;5038846;28;20025;-75
2022/06/19 02:59:13;;;;;;;2.53;2.33;;;;;;;;;;5056718;28;20462;-75
2022/06/19 03:01:39;;;;;;;2.03;1.90;;;;;;;;;;5056875;28;20325;-75
2022/06/19 03:04:05;;;;;;;2.30;2.10;;;;;;;;;;5056740;28;20279;-75
2022/06/19 03:06:30;;;;;;;2.50;2.30;;;;;;;;;;5056376;28;20032;-75
2022/06/19 03:08:55;;;;;;;3.87;1.90;;;;;;;;;;5056383;28;20037;-74
2022/06/19 03:11:20;;;;;;;2.33;2.13;;;;;;;;;;5056490;28;20283;-75
2022/06/19 03:13:46;;;;;;;3.53;2.00;;;;;;;;;;5056145;28;20378;-75
2022/06/19 03:16:12;;;;;;;1.83;1.73;;;;;;;;;;5055776;28;20100;-73
2022/06/19 03:18:38;;;;;;;2.20;2.00;;;;;;;;;;5056177;28;20017;-75
2022/06/19 03:21:04;;;;;;;2.72;2.22;;;;;;;;;;5056300;28;20021;-75
2022/06/19 03:23:29;;;;;;;1.60;1.50;;;;;;;;;;5056074;28;20029;-75
2022/06/19 03:25:54;;;;;;;3.50;2.10;;;;;;;;;;5055958;28;20021;-76
2022/06/19 03:28:20;;;;;;;3.33;1.93;;;;;;;;;;5055856;28;20612;-74
2022/06/19 03:30:45;;;;;;;2.97;2.10;;;;;;;;;;5055877;28;20259;-74
2022/06/19 03:33:10;;;;;;;2.83;2.30;;;;;;;;;;5056010;28;20474;-76
2022/06/19 03:35:35;;;;;;;4.33;2.17;;;;;;;;;;5037990;28;20121;-74
2022/06/19 03:38:01;;;;;;;2.40;2.13;;;;;;;;;;5055863;28;20282;-74
2022/06/19 03:40:26;;;;;;;3.88;2.25;;;;;;;;;;5055862;28;20299;-75
2022/06/19 03:42:51;;;;;;;2.70;2.05;;;;;;;;;;5055657;28;20029;-74
2022/06/19 03:45:17;;;;;;;2.10;1.88;;;;;;;;;;5037664;28;20049;-74
2022/06/19 03:47:42;;;;;;;1.95;1.77;;;;;;;;;;5055645;28;20027;-75
2022/06/19 03:50:08;;;;;;;1.92;1.80;;;;;;;;;;5055746;28;20035;-74
2022/06/19 03:52:33;;;;;;;1.85;1.70;;;;;;;;;;5037662;28;20462;-74
2022/06/19 03:54:59;;;;;;;2.83;1.45;;;;;;;;;;5055387;28;20017;-74
2022/06/19 03:57:24;;;;;;;2.63;1.92;;;;;;;;;;5055600;28;20028;-76
2022/06/19 03:59:50;;;;;;;2.05;1.80;;;;;;;;;;5055683;28;20020;-76
2022/06/19 04:02:15;;;;;;;2.42;1.80;;;;;;;;;;5055626;28;20110;-75
2022/06/19 04:04:42;;;;;;;2.43;2.33;;;;;;;;;;5055345;28;20025;-75
2022/06/19 04:07:09;;;;;;;5.03;1.90;;;;;;;;;;5055594;28;20282;-74
2022/06/19 04:09:35;;;;;;;2.53;1.95;;;;;;;;;;5055553;28;20032;-75
2022/06/19 04:12:00;;;;;;;1.77;1.67;;;;;;;;;;5055163;28;20104;-77
2022/06/19 04:14:25;;;;;;;2.43;2.23;;;;;;;;;;5054903;28;20771;-77
2022/06/19 04:16:50;;;;;;;4.20;1.50;;;;;;;;;;5055119;28;20279;-76
2022/06/19 04:19:16;;;;;;;1.98;1.70;;;;;;;;;;5055069;28;20325;-75
2022/06/19 04:21:42;;;;;;;3.17;1.70;;;;;;;;;;5055115;28;20079;-75
2022/06/19 04:24:09;;;;;;;2.28;1.73;;;;;;;;;;5054924;28;20755;-75
2022/06/19 04:26:36;;;;;;;1.80;1.70;;;;;;;;;;5055033;28;20031;-75
2022/06/19 04:29:02;;;;;;;3.13;1.83;;;;;;;;;;5054047;28;20029;-74
2022/06/19 04:31:27;;;;;;;2.35;1.67;;;;;;;;;;5055013;28;20033;-75
2022/06/19 04:33:53;;;;;;;2.42;1.95;;;;;;;;;;5054876;28;20075;-75
2022/06/19 04:36:19;;;;;;;1.98;1.58;;;;;;;;;;5054976;28;20017;-75
2022/06/19 04:38:46;;;;;;;1.83;1.38;;;;;;;;;;5054597;28;20315;-75
2022/06/19 04:41:12;;;;;;;1.95;1.80;;;;;;;;;;5054446;28;20029;-74
2022/06/19 04:43:38;;;;;;;1.63;1.52;;;;;;;;;;5036521;28;20413;-75
2022/06/19 04:46:04;;;;;;;3.10;1.23;;;;;;;;;;5054558;28;20021;-75
2022/06/19 04:48:29;;;;;;;3.90;1.60;;;;;;;;;;5054609;28;20017;-74
2022/06/19 04:50:54;;;;;;;1.55;1.45;;;;;;;;;;5054753;28;20025;-74
2022/06/19 04:53:19;;;;;;;2.05;1.70;;;;;;;;;;5054777;28;20031;-75
2022/06/19 04:55:45;;;;;;;1.73;1.40;;;;;;;;;;5054171;28;20029;-76
2022/06/19 04:58:10;;;;;;;2.10;1.90;;;;;;;;;;5054339;28;20025;-75
2022/06/19 05:00:35;;;;;;;1.63;1.53;;;;;;;;;;5054222;28;20104;-74
2022/06/19 05:03:00;;;;;;;2.20;1.70;;;;;;;;;;5054129;28;20402;-75
2022/06/19 05:05:26;;;;;;;2.87;1.93;;;;;;;;;;5054234;28;20271;-75
2022/06/19 05:07:51;;;;;;;2.17;1.98;;;;;;;;;;5054208;28;20283;-76
2022/06/19 05:10:16;;;;;;;3.20;1.60;;;;;;;;;;5053905;28;20027;-75
2022/06/19 05:12:42;;;;;;;1.75;1.63;;;;;;;;;;5054166;28;20270;-75
2022/06/19 05:15:08;;;;;;;1.95;1.70;;;;;;;;;;5054128;28;20025;-74
2022/06/19 05:17:35;;;;;;;6.03;1.45;;;;;;;;;;5053797;28;20056;-74
2022/06/19 05:20:01;;;;;;;4.40;2.08;;;;;;;;;;5054100;28;20025;-75
2022/06/19 05:22:26;;;;;;;1.90;1.45;;;;;;;;;;5054127;28;20466;-75
2022/06/19 05:24:51;;;;;;;1.63;1.40;;;;;;;;;;5053651;28;20063;-75
2022/06/19 05:27:17;;;;;;;3.17;1.50;;;;;;;;;;5053791;28;20279;-74
2022/06/19 05:29:42;;;;;;;2.90;1.30;;;;;;;;;;5035868;28;20112;-74
2022/06/19 05:32:07;;;;;;;2.60;1.30;;;;;;;;;;5053698;28;20028;-74
2022/06/19 05:34:34;;;;;;;2.47;1.40;;;;;;;;;;5053793;28;20032;-75
2022/06/19 05:36:59;;;;;;;1.48;1.38;;;;;;;;;;5035772;28;20049;-75
2022/06/19 05:39:25;;;;;;;2.35;1.33;;;;;;;;;;5053369;28;20047;-74
2022/06/19 05:41:52;;;;;;;9.68;1.77;;;;;;;;;;5053580;28;20024;-75
2022/06/19 05:44:19;;;;;;;2.30;1.38;;;;;;;;;;5053300;28;20494;-75
2022/06/19 05:46:46;;;;;;;2.10;1.45;;;;;;;;;;5053521;28;20086;-75
2022/06/19 05:49:12;;;;;;;2.03;1.45;;;;;;;;;;5035707;28;20024;-75
2022/06/19 05:51:37;;;;;;;3.77;1.40;;;;;;;;;;5053695;28;20032;-74
2022/06/19 05:54:02;;;;;;;2.80;1.50;;;;;;;;;;5053325;28;20336;-74
2022/06/19 05:56:28;;;;;;;3.70;1.30;;;;;;;;;;5053453;28;20282;-76
2022/06/19 05:58:53;;;;;;;2.63;1.55;;;;;;;;;;5053427;28;20267;-74
2022/06/19 06:01:19;;;;;;;2.20;1.47;;;;;;;;;;5035622;28;20013;-74
2022/06/19 06:03:44;;;;;;;1.42;1.33;;;;;;;;;;5053436;28;20727;-74
2022/06/19 06:06:12;;;;;;;1.23;1.13;;;;;;;;;;5053347;28;20070;-74
2022/06/19 06:08:38;;;;;;;4.43;1.48;;;;;;;;;;5035548;28;20824;-74
2022/06/19 06:11:04;;;;;;;2.10;1.35;;;;;;;;;;5053161;28;20096;-74
2022/06/19 06:13:29;;;;;;;3.42;1.20;;;;;;;;;;5035382;28;20055;-75
2022/06/19 06:15:55;;;;;;;2.13;1.33;;;;;;;;;;5053249;28;20017;-75
2022/06/19 06:18:20;;;;;;;2.40;1.20;;;;;;;;;;5053329;28;20096;-74
2022/06/19 06:20:53;;;;;;;3.75;1.20;;;;;;;;;;5053285;28;20519;-73
2022/06/19 06:23:18;;;;;;;1.20;1.20;;;;;;;;;;5053195;28;20093;-74
2022/06/19 06:25:44;;;;;;;1.83;1.70;;;;;;;;;;5053304;28;20100;-74
2022/06/19 06:28:09;;;;;;;1.30;1.20;;;;;;;;;;5035291;28;20025;-72
2022/06/19 06:30:35;;;;;;;2.13;1.07;;;;;;;;;;5053117;28;20514;-73
2022/06/19 06:33:00;;;;;;;1.87;1.63;;;;;;;;;;5053169;28;20013;-74
2022/06/19 06:35:25;;;;;;;2.35;1.30;;;;;;;;;;5053020;28;20543;-74
2022/06/19 06:37:50;;;;;;;2.47;1.00;;;;;;;;;;5052960;28;20425;-73
2022/06/19 06:40:16;;;;;;;1.30;1.20;;;;;;;;;;5035141;28;20024;-75
2022/06/19 06:42:41;;;;;;;2.27;1.30;;;;;;;;;;5053371;28;20264;-75
2022/06/19 06:45:07;;;;;;;1.70;1.10;;;;;;;;;;5052810;28;20564;-75
2022/06/19 06:47:32;;;;;;;4.00;1.10;;;;;;;;;;5053020;28;20410;-75
2022/06/19 06:49:57;;;;;;;1.52;1.05;;;;;;;;;;5035265;28;20017;-75
2022/06/19 06:52:23;;;;;;;2.73;1.30;;;;;;;;;;5055282;28;20104;-75
2022/06/19 06:54:48;;;;;;;3.33;1.20;;;;;;;;;;5038669;28;20024;-74
2022/06/19 06:57:14;;;;;;;1.20;1.10;;;;;;;;;;5056809;28;20628;-74
2022/06/19 06:59:39;;;;;;;2.03;1.60;;;;;;;;;;5039003;28;20067;-73
2022/06/19 07:02:05;;;;;;;1.50;1.30;;;;;;;;;;5056627;28;20155;-74
2022/06/19 07:04:31;;;;;;;2.58;2.38;;;;;;;;;;5056415;28;20095;-74
2022/06/19 07:06:56;;;;;;;2.10;1.90;;;;;;;;;;5056347;28;20522;-75
2022/06/19 07:09:21;;;;;;;1.40;1.30;;;;;;;;;;5056627;28;20025;-75
2022/06/19 07:11:47;;;;;;;4.05;1.50;;;;;;;;;;5056743;28;20255;-74
2022/06/19 07:14:14;;;;;;;7.72;1.98;;;;;;;;;;5056108;28;20056;-75
2022/06/19 07:16:40;;;;;;;2.00;1.25;;;;;;;;;;5056280;28;20013;-74
2022/06/19 07:19:06;;;;;;;2.38;1.27;;;;;;;;;;5056007;28;20474;-74
2022/06/19 07:21:31;;;;;;;2.35;1.00;;;;;;;;;;5056280;28;20102;-74
2022/06/19 07:23:57;;;;;;;1.17;1.05;;;;;;;;;;5056384;28;20359;-73
2022/06/19 07:26:23;;;;;;;3.80;1.27;;;;;;;;;;5056166;28;20432;-74
2022/06/19 07:28:49;;;;;;;2.65;1.10;;;;;;;;;;5038037;28;20032;-74
2022/06/19 07:31:14;;;;;;;1.85;1.30;;;;;;;;;;5055965;28;20021;-75
2022/06/19 07:33:39;;;;;;;2.97;1.37;;;;;;;;;;5055941;28;20032;-75
2022/06/19 07:36:06;;;;;;;2.67;1.40;;;;;;;;;;5056014;28;20435;-74
2022/06/19 07:38:31;;;;;;;2.30;0.98;;;;;;;;;;5055884;28;20358;-74
2022/06/19 07:40:56;;;;;;;2.60;1.40;;;;;;;;;;5055871;28;20017;-75
2022/06/19 07:43:22;;;;;;;2.90;1.00;;;;;;;;;;5055796;28;20017;-74
2022/06/19 07:45:47;;;;;;;2.08;1.40;;;;;;;;;;5055801;28;20264;-74
2022/06/19 07:50:56;;;;;;;1.20;1.02;;;;;;;;;;5055611;28;20492;-75
2022/06/19 07:53:22;;;;;;;1.73;1.20;;;;;;;;;;5055639;28;20115;-74
2022/06/19 07:55:47;;;;;;;2.40;1.10;;;;;;;;;;5055722;28;20025;-74
2022/06/19 07:58:12;;;;;;;0.77;0.77;;;;;;;;;;5055491;28;20017;-74
2022/06/19 08:00:38;;;;;;;2.10;1.10;;;;;;;;;;5055496;28;20025;-74
2022/06/19 08:03:03;;;;;;;1.90;1.40;;;;;;;;;;5036130;28;20374;-73
2022/06/19 08:05:30;;;;;;;2.53;1.10;;;;;;;;;;5055630;28;20663;-74
2022/06/19 08:07:57;;;;;;;1.45;1.02;;;;;;;;;;5055720;28;20025;-74
2022/06/19 08:10:27;;;;;;;3.95;1.30;;;;;;;;;;5055389;28;20023;-74
2022/06/19 08:12:52;;;;;;;;;;;;;;;;;;5055890;28;20036;-73
2022/06/19 08:15:18;;;;;;;2.80;1.30;;;;;;;;;;5053819;28;19908;-74
2022/06/19 08:17:43;;;;;;;0.90;0.90;;;;;;;;;;5054952;28;20017;-73
2022/06/19 08:20:09;;;;;;;2.40;1.60;;;;;;;;;;5055356;28;20058;-74
2022/06/19 08:22:34;;;;;;;2.45;1.30;;;;;;;;;;5055100;28;20021;-74
2022/06/19 08:24:59;;;;;;;1.80;1.43;;;;;;;;;;5054937;28;20505;-75
2022/06/19 08:27:25;;;;;;;1.40;1.30;;;;;;;;;;5036921;28;20044;-74
2022/06/19 08:29:50;;;;;;;2.77;1.47;;;;;;;;;;5037114;28;20115;-73
2022/06/19 08:32:15;;;;;;;1.92;1.23;;;;;;;;;;5036901;28;20381;-75
2022/06/19 08:34:40;;;;;;;4.27;1.50;;;;;;;;;;5054604;28;20025;-74
2022/06/19 08:37:07;;;;;;;1.77;1.20;;;;;;;;;;5054730;28;20067;-73
2022/06/19 08:39:33;;;;;;;0.90;0.90;;;;;;;;;;5055081;28;20260;-74
2022/06/19 08:41:58;;;;;;;1.88;1.42;;;;;;;;;;5054935;28;20036;-74
2022/06/19 08:44:23;;;;;;;2.57;1.23;;;;;;;;;;5054468;28;20083;-74
2022/06/19 08:46:58;;;;;;;1.33;0.90;;;;;;;;;;5054443;28;20033;-73
2022/06/19 08:49:23;;;;;;;2.63;1.20;;;;;;;;;;5054859;28;20029;-73
2022/06/19 08:52:11;;;;;;;3.37;1.23;;;;;;;;;;5054901;28;20021;-72
2022/06/19 08:54:39;;;;;;;1.77;1.20;;;;;;;;;;5054629;28;20029;-75
2022/06/19 08:57:05;;;;;;;1.15;1.05;;;;;;;;;;5054591;28;20025;-74
2022/06/19 08:59:33;;;;;;;4.83;1.33;;;;;;;;;;5054416;28;20104;-73
2022/06/19 09:02:04;;;;;;;1.60;1.50;;;;;;;;;;5054546;28;20021;-74
2022/06/19 09:07:26;;;;;;;2.65;1.27;;;;;;;;;;5054973;28;20086;-74
2022/06/19 09:09:55;;;;;;;3.08;1.10;;;;;;;;;;5053887;28;20052;-73
2022/06/19 09:12:26;;;;;;;2.33;1.23;;;;;;;;;;5054307;28;20056;-73
2022/06/19 09:15:12;;;;;;;2.22;1.50;;;;;;;;;;5053675;28;20025;-74
2022/06/19 09:17:46;;;;;;;2.83;1.50;;;;;;;;;;5053089;28;20033;-73
2022/06/19 09:20:14;;;;;;;1.63;1.08;;;;;;;;;;5054095;28;20108;-73
2022/06/19 09:22:59;;;;;;;3.25;1.45;;;;;;;;;;5054360;28;20048;-73
2022/06/19 09:25:36;;;;;;;1.17;1.10;;;;;;;;;;5053910;28;20029;-74
2022/06/19 09:28:07;;;;;;;2.40;1.10;;;;;;;;;;5053776;28;20024;-74
2022/06/19 09:30:35;;;;;;;2.17;1.10;;;;;;;;;;5053711;28;20106;-74
2022/06/19 09:33:03;;;;;;;3.53;1.20;;;;;;;;;;5053688;28;20021;-73
2022/06/19 09:35:43;;;;;;;1.67;1.23;;;;;;;;;;5053625;28;20060;-73
2022/06/19 09:38:08;;;;;;;2.85;1.38;;;;;;;;;;5053742;28;20481;-74
2022/06/19 09:40:35;;;;;;;3.30;1.73;;;;;;;;;;5053967;28;20025;-74
2022/06/19 09:43:35;;;;;;;1.73;1.20;;;;;;;;;;5053453;28;20286;-75
2022/06/19 09:46:03;;;;;;;11.57;1.83;;;;;;;;;;4972912;28;20042;-74
2022/06/19 09:48:36;;;;;;;2.03;1.05;;;;;;;;;;5021763;28;20029;-73
2022/06/19 09:51:07;;;;;;;10.15;1.80;;;;;;;;;;5033641;28;20096;-73
2022/06/19 09:53:45;;;;;;;8.10;2.10;;;;;;;;;;5015890;28;20108;-73
2022/06/19 09:56:10;;;;;;;3.70;1.10;;;;;;;;;;5034252;28;20113;-74
2022/06/19 09:58:43;;;;;;;2.87;1.23;;;;;;;;;;5033871;28;20108;-74
2022/06/19 10:01:09;;;;;;;8.63;2.97;;;;;;;;;;5033861;28;20063;-74
2022/06/19 10:03:42;;;;;;;4.30;1.40;;;;;;;;;;5033556;28;20022;-74
2022/06/19 10:06:11;;;;;;;1.65;1.10;;;;;;;;;;5033306;28;20036;-72
2022/06/19 10:08:43;;;;;;;11.10;1.77;;;;;;;;;;5015622;28;20026;-73
2022/06/19 10:11:23;;;;;;;3.60;2.42;;;;;;;;;;5033735;28;20084;-74
2022/06/19 10:13:51;;;;;;;3.65;1.10;;;;;;;;;;5033315;28;20025;-73
2022/06/19 10:16:22;;;;;;;5.00;1.30;;;;;;;;;;5015549;28;20032;-73
2022/06/19 10:18:50;;;;;;;3.58;1.30;;;;;;;;;;5033275;28;20021;-73
2022/06/19 10:24:25;;;;;;;4.10;1.52;;;;;;;;;;5033175;28;20056;-75
2022/06/19 10:26:54;;;;;;;7.45;1.13;;;;;;;;;;5033969;28;20372;-73
2022/06/19 10:29:25;;;;;;;2.45;0.98;;;;;;;;;;5037619;28;20033;-74
2022/06/19 10:31:50;;;;;;;1.75;1.05;;;;;;;;;;5037129;28;20022;-74
2022/06/19 10:34:30;;;;;;;7.47;1.23;;;;;;;;;;5037573;28;20032;-75
2022/06/19 10:37:05;;;;;;;8.07;1.42;;;;;;;;;;5035721;28;20017;-75
2022/06/19 10:39:33;;;;;;;4.15;2.15;;;;;;;;;;5037221;28;20034;-75
2022/06/19 10:42:17;;;;;;;2.67;1.13;;;;;;;;;;5037102;28;20025;-74
2022/06/19 10:45:01;;;;;;;3.65;1.27;;;;;;;;;;5048327;28;20433;-74
2022/06/19 10:47:29;;;;;;;2.95;1.30;;;;;;;;;;5056876;28;20037;-73
2022/06/19 10:49:54;;;;;;;3.13;1.30;;;;;;;;;;5056635;28;20477;-73
2022/06/19 10:52:30;;;;;;;3.57;1.23;;;;;;;;;;5056744;28;20032;-74
2022/06/19 10:55:10;;;;;;;2.10;1.00;;;;;;;;;;5056765;28;20024;-75
2022/06/19 10:57:38;;;;;;;3.65;2.10;;;;;;;;;;5038865;28;20025;-74
2022/06/19 11:00:05;;;;;;;4.68;1.05;;;;;;;;;;5056674;28;20047;-75
2022/06/19 11:05:24;;;;;;;4.72;1.48;;;;;;;;;;5057095;28;20036;-74
2022/06/19 11:07:49;;;;;;;1.70;1.13;;;;;;;;;;5056972;28;20029;-75
2022/06/19 11:10:19;;;;;;;1.40;1.00;;;;;;;;;;5038884;28;20070;-76
2022/06/19 11:12:46;;;;;;;3.57;1.27;;;;;;;;;;5056295;28;20062;-73
2022/06/19 11:15:17;;;;;;;2.60;1.48;;;;;;;;;;5056326;28;20032;-74
2022/06/19 11:17:43;;;;;;;3.38;1.30;;;;;;;;;;5056463;28;20025;-74
2022/06/19 11:20:21;;;;;;;4.60;1.17;;;;;;;;;;5056453;28;20146;-73
2022/06/19 11:22:47;;;;;;;2.22;1.17;;;;;;;;;;5056262;28;20047;-74
2022/06/19 11:25:15;;;;;;;3.35;1.20;;;;;;;;;;5055821;28;20021;-74
2022/06/19 11:27:48;;;;;;;4.63;1.80;;;;;;;;;;5056249;28;20036;-74
2022/06/19 11:30:13;;;;;;;2.03;1.10;;;;;;;;;;5056034;28;20025;-75
2022/06/19 11:32:47;;;;;;;3.60;1.17;;;;;;;;;;5056250;28;20350;-75
2022/06/19 11:35:12;;;;;;;2.83;1.13;;;;;;;;;;5055849;28;20291;-75
2022/06/19 11:37:46;;;;;;;3.80;1.05;;;;;;;;;;5055526;28;20013;-75
2022/06/19 11:40:18;;;;;;;1.50;0.95;;;;;;;;;;5056336;28;20075;-75
2022/06/19 11:42:57;;;;;;;6.68;1.83;;;;;;;;;;5055719;28;20029;-74
2022/06/19 11:45:31;;;;;;;3.70;1.27;;;;;;;;;;5055880;28;20586;-74
2022/06/19 11:47:56;;;;;;;3.90;1.58;;;;;;;;;;5055447;28;20444;-74
2022/06/19 11:50:21;;;;;;;12.50;1.43;;;;;;;;;;5055481;28;20096;-74
2022/06/19 11:52:52;;;;;;;6.73;1.10;;;;;;;;;;5055834;28;20106;-74
2022/06/19 11:55:17;;;;;;;;;;;;;;;;;;5056440;28;20616;-73
2022/06/19 11:57:43;;;;;;;2.85;1.20;;;;;;;;;;5055811;28;20312;-73
2022/06/19 12:00:21;;;;;;;5.95;1.50;;;;;;;;;;5055580;28;20370;-73
2022/06/19 12:02:52;;;;;;;3.22;1.98;;;;;;;;;;5037423;28;20035;-74
2022/06/19 12:05:38;;;;;;;1.52;1.20;;;;;;;;;;5021023;28;20020;-73
2022/06/19 12:08:16;;;;;;;2.67;1.33;;;;;;;;;;5055482;28;20079;-72
2022/06/19 12:10:42;;;;;;;2.67;1.20;;;;;;;;;;5055275;28;20037;-74
2022/06/19 12:13:19;;;;;;;3.38;1.10;;;;;;;;;;5037087;28;20071;-74
2022/06/19 12:15:52;;;;;;;5.90;1.00;;;;;;;;;;5055504;28;20045;-74
2022/06/19 12:18:19;;;;;;;5.72;1.20;;;;;;;;;;5055354;28;20019;-74
2022/06/19 12:20:55;;;;;;;3.58;1.42;;;;;;;;;;5037261;28;20055;-74
2022/06/19 12:23:23;;;;;;;7.53;1.58;;;;;;;;;;5055079;28;20021;-74
2022/06/19 12:25:54;;;;;;;5.85;1.30;;;;;;;;;;5054859;28;20370;-74
2022/06/19 12:28:31;;;;;;;2.95;1.00;;;;;;;;;;5055090;28;20028;-74
2022/06/19 12:30:56;;;;;;;3.90;1.67;;;;;;;;;;5054942;28;20090;-73
2022/06/19 12:33:25;;;;;;;4.00;1.70;;;;;;;;;;5054950;28;20466;-73
2022/06/19 12:35:51;;;;;;;5.25;1.17;;;;;;;;;;5054641;28;20033;-73
2022/06/19 12:38:18;;;;;;;8.52;1.45;;;;;;;;;;5037025;28;20072;-73
2022/06/19 12:40:47;;;;;;;3.67;1.45;;;;;;;;;;5054945;28;20021;-74
2022/06/19 12:43:19;;;;;;;5.07;1.55;;;;;;;;;;5036864;28;20029;-74
2022/06/19 12:45:51;;;;;;;3.60;1.17;;;;;;;;;;5037326;28;20081;-74
2022/06/19 12:48:22;;;;;;;5.53;1.83;;;;;;;;;;5054621;28;20366;-74
2022/06/19 12:50:47;;;;;;;;;;;;;;;;;;5054405;28;20025;-74
2022/06/19 12:53:16;;;;;;;2.53;1.10;;;;;;;;;;5054451;28;19904;-73
2022/06/19 12:55:49;;;;;;;5.03;1.10;;;;;;;;;;5054450;28;20112;-74
2022/06/19 12:58:32;;;;;;;3.47;1.00;;;;;;;;;;5054411;28;20103;-74
2022/06/19 13:01:04;;;;;;;2.03;0.80;;;;;;;;;;5054421;28;20025;-74
2022/06/19 13:03:48;;;;;;;4.03;1.13;;;;;;;;;;5054181;28;20511;-75
2022/06/19 13:06:22;;;;;;;7.60;1.13;;;;;;;;;;5054411;28;20390;-74
2022/06/19 13:08:59;;;;;;;2.53;1.17;;;;;;;;;;5054380;28;20025;-75
2022/06/19 13:11:26;;;;;;;3.78;1.38;;;;;;;;;;5054127;28;20032;-74
2022/06/19 13:14:02;;;;;;;4.97;1.23;;;;;;;;;;5053913;28;20032;-74
2022/06/19 13:16:30;;;;;;;4.20;1.63;;;;;;;;;;5054285;28;20451;-74
2022/06/19 13:19:13;;;;;;;1.90;1.42;;;;;;;;;;5036049;28;20017;-74
2022/06/19 13:21:44;;;;;;;4.82;1.33;;;;;;;;;;5054297;28;20083;-74
2022/06/19 13:24:09;;;;;;;;;;;;;;;;;;5054258;28;20029;-74
2022/06/19 13:29:39;;;;;;;2.95;1.40;;;;;;;;;;5054207;28;20044;-75
2022/06/19 13:32:11;;;;;;;1.48;0.88;;;;;;;;;;5053833;28;20029;-74
2022/06/19 13:34:39;;;;;;;2.22;1.35;;;;;;;;;;5053706;28;20060;-74
2022/06/19 13:37:30;;;;;;;3.47;1.00;;;;;;;;;;5054132;28;20485;-75
2022/06/19 13:39:58;;;;;;;2.58;1.08;;;;;;;;;;5022715;28;20033;-74
2022/06/19 13:42:38;;;;;;;3.60;1.45;;;;;;;;;;5053686;28;20074;-73
2022/06/19 13:45:22;;;;;;;3.65;1.92;;;;;;;;;;5035577;28;20057;-75
2022/06/19 13:47:50;;;;;;;9.40;1.27;;;;;;;;;;5053610;28;20112;-74
2022/06/19 13:50:18;;;;;;;4.88;1.42;;;;;;;;;;5035520;28;20021;-74
2022/06/19 13:53:02;;;;;;;2.75;0.93;;;;;;;;;;5053629;28;20111;-76
2022/06/19 13:55:33;;;;;;;5.22;1.10;;;;;;;;;;5053895;28;20025;-75
2022/06/19 13:57:58;;;;;;;6.60;1.13;;;;;;;;;;5035432;28;20025;-75
2022/06/19 14:00:29;;;;;;;5.60;1.43;;;;;;;;;;5053544;28;20032;-75
2022/06/19 14:03:12;;;;;;;1.95;1.17;;;;;;;;;;5053495;28;20049;-75
2022/06/19 14:05:38;;;;;;;3.45;2.47;;;;;;;;;;5035383;28;20033;-75
2022/06/19 14:08:10;;;;;;;1.75;1.25;;;;;;;;;;5053540;28;20033;-75
2022/06/19 14:10:38;;;;;;;1.92;1.23;;;;;;;;;;5053410;28;20489;-74
2022/06/19 14:13:18;;;;;;;2.45;1.45;;;;;;;;;;5035452;28;20047;-75
2022/06/19 14:15:55;;;;;;;6.40;1.48;;;;;;;;;;5053262;28;20025;-74
2022/06/19 14:18:30;;;;;;;3.78;1.40;;;;;;;;;;5035419;28;20453;-75
2022/06/19 14:21:05;;;;;;;3.05;1.42;;;;;;;;;;5053329;28;20017;-75
2022/06/19 14:23:30;;;;;;;2.47;1.05;;;;;;;;;;5053416;28;20028;-75
2022/06/19 14:26:18;;;;;;;2.80;1.13;;;;;;;;;;5053203;28;20378;-74
2022/06/19 14:28:49;;;;;;;3.65;1.10;;;;;;;;;;5052742;28;20057;-74
2022/06/19 14:31:16;;;;;;;2.47;1.65;;;;;;;;;;5053428;28;20025;-74
2022/06/19 14:33:48;;;;;;;2.00;1.23;;;;;;;;;;5035154;28;20026;-75
2022/06/19 14:36:19;;;;;;;5.45;1.85;;;;;;;;;;5053172;28;20504;-74
2022/06/19 14:38:58;;;;;;;3.58;0.98;;;;;;;;;;5053040;28;20036;-75
2022/06/19 14:41:25;;;;;;;2.95;1.33;;;;;;;;;;5053171;28;20150;-74
2022/06/19 14:44:01;;;;;;;1.20;0.98;;;;;;;;;;5053447;28;20037;-75
2022/06/19 14:46:35;;;;;;;3.95;1.50;;;;;;;;;;5035427;28;20052;-74
2022/06/19 14:49:19;;;;;;;4.53;1.23;;;;;;;;;;5053202;28;20025;-76
2022/06/19 14:51:45;;;;;;;3.38;1.08;;;;;;;;;;5053030;28;20105;-74
2022/06/19 14:54:22;;;;;;;6.93;1.63;;;;;;;;;;5052962;28;20044;-74
2022/06/19 14:56:59;;;;;;;4.85;2.40;;;;;;;;;;5052780;28;20429;-74
2022/06/19 14:59:24;;;;;;;1.83;1.13;;;;;;;;;;5052881;28;20095;-73
2022/06/19 15:01:52;;;;;;;3.97;1.67;;;;;;;;;;5052802;28;20419;-75
2022/06/19 15:04:19;;;;;;;8.73;1.75;;;;;;;;;;5052668;28;20043;-73
2022/06/19 15:06:48;;;;;;;3.45;1.48;;;;;;;;;;5053053;28;20025;-74
2022/06/19 15:09:40;;;;;;;6.70;1.52;;;;;;;;;;5053184;28;20049;-73